Terminal Aerodrome Forecast
Issued by NWS Wilmington, NC

Home | Current Version | Previous Version | Text Only | Print | Product List | Glossary On
Versions: 1 2 3 4 5 6 7 8 9 10 11 12 13 14 15 16 17 18 19 20 21 22 23 24 25 26 27 28 29 30 31
000
FTUS42 KILM 181819 AAA
TAFFLO
TAF AMD
KFLO 181819Z 1818/1918 04004KT P6SM VCSH BKN030
     FM182000 08004KT P6SM SCT025 BKN040
     FM190200 05003KT P6SM BKN100
     FM190600 09003KT 4SM BR VCSH BKN016
     FM191200 10006KT 5SM -SHRA BKN014
     FM191400 13010KT 3SM SHRA BKN010=

USA.gov is the U.S. government's official web portal to all federal, state and local government web resources and services.